CheckWX is a tool to help pilots better visualize weather data.  It is not intended as a substitute for an official pre-flight weather briefing.

19:42:47 UTC

CYQZ METAR
Quesnel Airport
Quesnel, British Columbia, Canada
Current

43 mins ago

CYQZ 191900Z AUTO 16008KT 3/4SM -SN FEW003 OVC012 M08/M10 A2991 RMK SLP172
Observed
Feb-19 @ 19:00 UTC
Wind
  • 160° at 8 KTS
Visibility
3/4 SM
Flight Rules
LIFR
Conditions
Light Snow
Cloud Levels
  • Few at 300' AGL
  • Overcast at 1,200' AGL
Temperature
-8°C / 18°F
Dewpoint
-10°C / 14°F
Humidity
86%
Altimeter
29.91" Hg
Pressure
1017.2 hPa
Previous

1 hour ago

CYQZ 191824Z AUTO 16009KT 3/4SM -SN VV011 M08/M10 A2993 RMK SLP177
Observed
Feb-19 @ 18:24 UTC
Wind
  • 160° at 9 KTS
Visibility
3/4 SM
Flight Rules
LIFR
Conditions
Light Snow
Cloud Levels
  • Vertical visibility at 1,100' AGL
Temperature
-8°C / 18°F
Dewpoint
-10°C / 14°F
Humidity
86%
Altimeter
29.93" Hg
Pressure
1017.7 hPa
Previous

2 hours ago

CYQZ 191802Z AUTO 16006KT 3/4SM -SN VV010 M08/M10 A2994 RMK SLP181
Observed
Feb-19 @ 18:02 UTC
Wind
  • 160° at 6 KTS
Visibility
3/4 SM
Flight Rules
LIFR
Conditions
Light Snow
Cloud Levels
  • Vertical visibility at 1,000' AGL
Temperature
-8°C / 18°F
Dewpoint
-10°C / 14°F
Humidity
86%
Altimeter
29.94" Hg
Pressure
1018.1 hPa